createdAt,value
2022-09-04T00:01:08.366Z,24.73
2022-09-04T00:03:45.890Z,25.12
2022-09-04T00:06:19.612Z,24.81
2022-09-04T00:08:53.114Z,24.84
2022-09-04T00:11:30.947Z,24.82
2022-09-04T00:14:02.717Z,24.79
2022-09-04T00:16:43.199Z,24.82
2022-09-04T00:19:24.401Z,24.52
2022-09-04T00:21:58.345Z,24.46
2022-09-04T00:24:48.014Z,24.35
2022-09-04T00:27:25.537Z,24.38
2022-09-04T00:30:06.568Z,24.14
2022-09-04T00:32:55.883Z,24.19
2022-09-04T00:35:37.979Z,24.02
2022-09-04T00:38:12.308Z,24.41
2022-09-04T00:40:40.930Z,24.21
2022-09-04T00:43:26.883Z,24.43
2022-09-04T00:46:05.120Z,24.47
2022-09-04T00:49:05.899Z,24.29
2022-09-04T00:51:45.226Z,24.21
2022-09-04T00:54:29.161Z,24.12
2022-09-04T00:57:26.980Z,24.12
2022-09-04T01:00:21.894Z,23.67
2022-09-04T01:03:07.281Z,23.79
2022-09-04T01:05:54.163Z,24.04
2022-09-04T01:09:00.027Z,24.21
2022-09-04T01:11:36.295Z,23.94
2022-09-04T01:14:29.618Z,24.09
2022-09-04T01:17:09.483Z,24.13
2022-09-04T01:19:55.265Z,23.78
2022-09-04T01:22:36.030Z,24.15
2022-09-04T01:25:27.785Z,23.88
2022-09-04T01:28:28.149Z,24.03
2022-09-04T01:31:22.801Z,24.00
2022-09-04T01:34:26.798Z,23.63
2022-09-04T01:37:35.520Z,23.35
2022-09-04T01:40:10.175Z,23.68
2022-09-04T01:42:51.759Z,24.22
2022-09-04T01:45:38.387Z,24.72
2022-09-04T01:48:08.105Z,24.58
2022-09-04T01:50:39.090Z,24.01
2022-09-04T01:53:06.622Z,23.96
2022-09-04T01:56:12.330Z,24.17
2022-09-04T01:59:18.399Z,24.20
2022-09-04T02:02:16.681Z,24.35
2022-09-04T02:05:10.281Z,24.12
2022-09-04T02:07:47.971Z,23.33
2022-09-04T02:10:53.808Z,23.36
2022-09-04T02:13:53.849Z,23.23
2022-09-04T02:16:30.364Z,23.48
2022-09-04T02:19:13.598Z,23.62
2022-09-04T02:21:46.900Z,23.80
2022-09-04T02:24:30.192Z,23.83
2022-09-04T02:27:26.601Z,23.73
2022-09-04T02:30:08.325Z,23.91
2022-09-04T02:32:56.547Z,23.74
2022-09-04T02:35:39.923Z,23.78
2022-09-04T02:38:28.396Z,23.63
2022-09-04T02:41:19.732Z,23.20
2022-09-04T02:44:14.651Z,22.84
2022-09-04T02:47:06.222Z,23.19
2022-09-04T02:50:03.685Z,23.92
2022-09-04T02:52:35.411Z,24.21
2022-09-04T02:55:34.659Z,23.60
2022-09-04T02:58:15.425Z,23.80
2022-09-04T03:01:12.517Z,23.88
2022-09-04T03:03:48.094Z,23.94
2022-09-04T03:06:23.913Z,23.87
2022-09-04T03:09:07.079Z,23.44
2022-09-04T03:12:07.226Z,23.69
2022-09-04T03:14:54.995Z,23.41
2022-09-04T03:17:33.639Z,23.51
2022-09-04T03:20:10.589Z,23.51
2022-09-04T03:22:59.655Z,23.49
2022-09-04T03:25:50.785Z,23.78
2022-09-04T03:28:50.661Z,23.67
2022-09-04T03:31:58.748Z,23.66
2022-09-04T03:35:11.010Z,23.81
2022-09-04T03:37:52.317Z,24.26
2022-09-04T03:40:41.732Z,23.84
2022-09-04T03:43:33.112Z,23.59
2022-09-04T03:46:18.681Z,23.87
2022-09-04T03:49:15.254Z,23.91
2022-09-04T03:51:55.818Z,23.83
2022-09-04T03:54:47.978Z,23.75
2022-09-04T03:57:29.035Z,23.69
2022-09-04T04:00:12.287Z,23.57
2022-09-04T04:03:20.252Z,23.49
2022-09-04T04:06:12.937Z,23.52
2022-09-04T04:08:56.699Z,23.51
2022-09-04T04:11:48.709Z,23.46
2022-09-04T04:14:38.430Z,23.47
2022-09-04T04:17:20.677Z,23.22
2022-09-04T04:20:27.720Z,23.59
2022-09-04T04:23:02.144Z,23.54
2022-09-04T04:26:07.195Z,23.55
2022-09-04T04:29:02.900Z,23.43
2022-09-04T04:32:13.452Z,23.56
2022-09-04T04:35:01.522Z,23.53
2022-09-04T04:37:35.077Z,23.47
2022-09-04T04:40:15.052Z,23.35
2022-09-04T04:43:14.126Z,23.54
2022-09-04T04:45:50.831Z,23.76
2022-09-04T04:48:38.941Z,23.28
2022-09-04T04:51:12.637Z,23.04
2022-09-04T04:53:55.627Z,22.87
2022-09-04T04:56:45.860Z,23.12
2022-09-04T04:59:40.117Z,23.27
2022-09-04T05:02:34.195Z,23.22
2022-09-04T05:05:14.007Z,22.73
2022-09-04T05:07:52.497Z,22.89
2022-09-04T05:10:31.988Z,22.49
2022-09-04T05:13:36.768Z,22.85
2022-09-04T05:16:35.244Z,23.07
2022-09-04T05:19:12.664Z,23.34
2022-09-04T05:21:53.337Z,22.78
2022-09-04T05:24:33.727Z,23.05
2022-09-04T05:27:11.206Z,23.36
2022-09-04T05:30:15.665Z,23.58
2022-09-04T05:32:54.159Z,23.89
2022-09-04T05:35:54.357Z,23.68
2022-09-04T05:38:35.944Z,22.63
2022-09-04T05:41:29.847Z,22.77
2022-09-04T05:44:21.488Z,23.01
2022-09-04T05:47:08.809Z,22.80
2022-09-04T05:50:01.072Z,23.43
2022-09-04T05:53:05.910Z,24.27
2022-09-04T05:55:36.183Z,24.36
2022-09-04T05:58:27.150Z,23.86
2022-09-04T06:01:03.557Z,23.56
2022-09-04T06:03:52.830Z,23.63
2022-09-04T06:06:32.709Z,23.93
2022-09-04T06:09:26.054Z,24.77
2022-09-04T06:12:21.992Z,25.18
2022-09-04T06:15:14.119Z,25.25
2022-09-04T06:17:47.332Z,24.93
2022-09-04T06:20:45.039Z,24.85
2022-09-04T06:23:37.089Z,25.23
2022-09-04T06:26:16.667Z,25.40
2022-09-04T06:29:05.692Z,25.16
2022-09-04T06:31:46.314Z,24.71
2022-09-04T06:34:46.004Z,25.52
2022-09-04T06:37:51.959Z,25.77
2022-09-04T06:40:43.642Z,26.24
2022-09-04T06:43:29.781Z,26.28
2022-09-04T06:46:29.650Z,27.18
2022-09-04T06:54:10.328Z,26.38
2022-09-04T06:57:16.818Z,27.54
2022-09-04T07:00:04.479Z,27.30
2022-09-04T07:03:14.913Z,27.83
2022-09-04T07:05:59.135Z,28.23
2022-09-04T07:08:44.097Z,28.69
2022-09-04T07:11:31.991Z,28.37
2022-09-04T07:28:08.470Z,29.92
2022-09-04T07:35:35.141Z,32.25
2022-09-04T07:38:39.002Z,31.33
2022-09-04T07:41:49.059Z,32.82
2022-09-04T07:49:37.042Z,35.41
2022-09-04T07:53:23.847Z,33.33
2022-09-04T07:59:38.700Z,32.27
2022-09-04T08:02:20.300Z,31.36
2022-09-04T08:05:44.660Z,32.94
2022-09-04T08:08:55.609Z,32.01
2022-09-04T08:12:39.558Z,31.82
2022-09-04T08:26:14.449Z,31.80
2022-09-04T08:38:22.890Z,34.08
2022-09-04T08:41:21.057Z,32.68
2022-09-04T08:44:29.746Z,36.11
2022-09-04T08:47:38.046Z,35.26
2022-09-04T08:50:31.830Z,37.49
2022-09-04T08:53:28.139Z,37.10
2022-09-04T08:56:20.614Z,37.05
2022-09-04T08:58:56.710Z,35.65
2022-09-04T09:01:45.093Z,37.38
2022-09-04T09:04:43.897Z,37.49
2022-09-04T09:07:42.295Z,37.53
2022-09-04T09:10:37.551Z,35.32
2022-09-04T09:13:26.134Z,36.33
2022-09-04T09:16:09.434Z,33.19
2022-09-04T09:18:48.683Z,37.17
2022-09-04T09:21:49.437Z,33.19
2022-09-04T09:24:47.511Z,36.18
2022-09-04T09:27:26.888Z,35.00
2022-09-04T09:30:13.237Z,36.01
2022-09-04T09:32:52.576Z,34.78
2022-09-04T09:36:04.868Z,36.37
2022-09-04T09:38:57.207Z,34.85
2022-09-04T09:41:46.512Z,35.31
2022-09-04T09:44:42.685Z,35.28
2022-09-04T09:47:37.807Z,33.41
2022-09-04T09:50:42.694Z,33.15
2022-09-04T09:53:29.155Z,32.33
2022-09-04T09:56:35.207Z,32.15
2022-09-04T09:59:23.589Z,32.31
2022-09-04T10:02:12.056Z,32.13
2022-09-04T10:04:54.498Z,34.96
2022-09-04T10:07:28.456Z,35.27
2022-09-04T10:10:01.900Z,34.65
2022-09-04T10:12:41.533Z,32.72
2022-09-04T10:15:30.369Z,31.05
2022-09-04T10:18:33.382Z,32.05
2022-09-04T10:21:10.448Z,32.98
2022-09-04T10:23:59.678Z,32.77
2022-09-04T10:26:54.536Z,32.60
2022-09-04T10:29:42.045Z,32.66
2022-09-04T10:32:27.576Z,31.99
2022-09-04T10:35:11.119Z,33.26
2022-09-04T10:38:00.056Z,33.52
2022-09-04T10:40:43.266Z,33.46
2022-09-04T10:43:36.403Z,33.80
2022-09-04T10:46:23.071Z,33.86
2022-09-04T10:49:15.575Z,33.56
2022-09-04T10:52:07.924Z,34.15
2022-09-04T10:54:45.061Z,34.33
2022-09-04T10:57:28.382Z,34.93
2022-09-04T11:00:07.748Z,33.05
2022-09-04T11:03:11.157Z,33.76
2022-09-04T11:06:02.373Z,31.73
2022-09-04T11:08:45.036Z,32.00
2022-09-04T11:12:01.894Z,31.70
2022-09-04T11:15:01.251Z,32.46
2022-09-04T11:17:47.056Z,32.18
2022-09-04T11:20:45.037Z,30.18
2022-09-04T11:23:35.795Z,31.22
2022-09-04T11:26:09.016Z,32.05
2022-09-04T11:28:56.023Z,31.87
2022-09-04T11:32:01.817Z,32.15
2022-09-04T11:35:00.969Z,31.91
2022-09-04T11:37:43.481Z,31.36
2022-09-04T11:40:55.327Z,31.53
2022-09-04T11:43:37.439Z,30.87
2022-09-04T11:46:33.062Z,31.47
2022-09-04T11:49:26.900Z,31.54
2022-09-04T11:52:00.295Z,31.48
2022-09-04T11:55:05.025Z,31.01
2022-09-04T11:57:47.349Z,30.74
2022-09-04T12:00:18.790Z,30.85
2022-09-04T12:03:08.507Z,30.40
2022-09-04T12:05:45.757Z,30.68
2022-09-04T12:08:40.817Z,31.56
2022-09-04T12:11:23.448Z,31.30
2022-09-04T12:13:55.912Z,31.45
2022-09-04T12:16:54.172Z,31.54
2022-09-04T12:19:39.994Z,31.93
2022-09-04T12:22:44.713Z,31.41
2022-09-04T12:25:30.621Z,30.38
2022-09-04T12:28:43.130Z,31.76
2022-09-04T12:31:38.628Z,31.38
2022-09-04T12:34:27.013Z,30.82
2022-09-04T12:37:39.253Z,31.61
2022-09-04T12:40:29.342Z,31.52
2022-09-04T12:43:20.463Z,31.37
2022-09-04T12:46:06.234Z,31.57
2022-09-04T12:48:45.660Z,31.57
2022-09-04T12:51:17.258Z,31.80
2022-09-04T12:53:56.672Z,31.57
2022-09-04T12:56:42.189Z,30.62
2022-09-04T12:59:28.529Z,30.60
2022-09-04T13:02:16.822Z,30.11
2022-09-04T13:05:08.554Z,30.10
2022-09-04T13:08:18.828Z,30.71
2022-09-04T13:11:09.579Z,31.23
2022-09-04T13:14:14.035Z,31.65
2022-09-04T13:17:02.435Z,31.35
2022-09-04T13:19:36.107Z,31.37
2022-09-04T13:22:12.586Z,30.72
2022-09-04T13:24:44.510Z,31.72
2022-09-04T13:27:16.014Z,30.63
2022-09-04T13:30:05.676Z,30.88
2022-09-04T13:33:02.210Z,31.01
2022-09-04T13:35:50.203Z,31.06
2022-09-04T13:38:37.797Z,31.33
2022-09-04T13:41:13.621Z,30.93
2022-09-04T13:43:53.168Z,30.79
2022-09-04T13:46:29.987Z,30.84
2022-09-04T13:49:11.494Z,31.65
2022-09-04T13:51:48.017Z,31.45
2022-09-04T13:54:30.216Z,31.46
2022-09-04T13:57:10.792Z,31.11
2022-09-04T13:59:38.622Z,31.63
2022-09-04T14:02:12.524Z,30.78
2022-09-04T14:04:48.046Z,30.99
2022-09-04T14:07:31.820Z,31.22
2022-09-04T14:10:04.361Z,31.03
2022-09-04T14:12:53.737Z,31.14
2022-09-04T14:15:52.270Z,31.20
2022-09-04T14:18:31.995Z,31.15
2022-09-04T14:21:31.452Z,31.01
2022-09-04T14:24:23.738Z,30.65
2022-09-04T14:27:11.442Z,30.54
2022-09-04T14:30:07.332Z,30.05
2022-09-04T14:33:08.901Z,29.97
2022-09-04T14:40:16.458Z,30.74
2022-09-04T14:43:20.608Z,30.85
2022-09-04T14:49:47.246Z,31.01
2022-09-04T14:56:25.622Z,30.79
2022-09-04T15:07:21.106Z,31.57
2022-09-04T15:10:43.387Z,31.29
2022-09-04T15:13:39.997Z,31.42
2022-09-04T15:16:24.719Z,31.34
2022-09-04T15:19:36.316Z,30.76
2022-09-04T15:22:19.428Z,30.50
2022-09-04T15:24:54.715Z,30.14
2022-09-04T15:27:34.038Z,30.43
2022-09-04T15:30:07.143Z,30.15
2022-09-04T15:32:40.020Z,30.37
2022-09-04T15:35:33.256Z,30.68
2022-09-04T15:38:20.732Z,30.79
2022-09-04T15:41:16.550Z,31.15
2022-09-04T15:43:54.043Z,30.49
2022-09-04T15:46:40.898Z,30.61
2022-09-04T15:49:20.502Z,30.78
2022-09-04T15:52:18.932Z,30.57
2022-09-04T15:54:46.499Z,30.44
2022-09-04T15:57:43.216Z,30.20
2022-09-04T16:00:17.366Z,30.34
2022-09-04T16:03:10.333Z,30.39
2022-09-04T16:06:01.686Z,30.61
2022-09-04T16:08:48.038Z,30.57
2022-09-04T16:11:36.847Z,30.49
2022-09-04T16:14:17.534Z,30.52
2022-09-04T16:16:55.122Z,29.98
2022-09-04T16:19:28.437Z,30.08
2022-09-04T16:22:17.964Z,30.33
2022-09-04T16:24:51.880Z,30.05
2022-09-04T16:27:23.899Z,30.18
2022-09-04T16:29:59.489Z,30.31
2022-09-04T16:32:35.351Z,30.49
2022-09-04T16:35:19.155Z,29.92
2022-09-04T16:38:03.652Z,29.95
2022-09-04T16:40:43.215Z,30.50
2022-09-04T16:43:34.191Z,30.39
2022-09-04T16:46:23.804Z,30.04
2022-09-04T16:49:03.599Z,30.02
2022-09-04T16:51:41.334Z,30.14
2022-09-04T16:54:30.955Z,30.08
2022-09-04T16:57:15.833Z,30.13
2022-09-04T16:59:48.589Z,29.56
2022-09-04T17:02:30.767Z,29.54
2022-09-04T17:05:40.168Z,29.79
2022-09-04T17:08:07.672Z,29.77
2022-09-04T17:10:47.040Z,29.83
2022-09-04T17:13:38.256Z,29.27
2022-09-04T17:16:21.867Z,29.21
2022-09-04T17:18:55.661Z,29.05
2022-09-04T17:26:34.642Z,29.00
2022-09-04T17:29:02.865Z,28.77
2022-09-04T17:29:16.015Z,28.91
2022-09-04T17:31:13.893Z,28.74
2022-09-04T17:40:37.324Z,28.37
2022-09-04T17:40:41.684Z,28.81
2022-09-04T17:40:51.159Z,28.05
2022-09-04T17:43:23.631Z,28.17
2022-09-04T17:46:02.378Z,28.10
2022-09-04T17:48:51.979Z,28.16
2022-09-04T17:51:33.862Z,28.18
2022-09-04T17:54:10.230Z,28.20
2022-09-04T17:56:49.481Z,28.08
2022-09-04T17:59:31.482Z,28.05
2022-09-04T18:02:29.023Z,28.14
2022-09-04T18:05:34.073Z,27.37
2022-09-04T18:08:38.266Z,27.17
2022-09-04T18:11:31.105Z,27.17
2022-09-04T18:14:17.745Z,27.23
2022-09-04T18:17:12.806Z,27.19
2022-09-04T18:19:45.744Z,27.26
2022-09-04T18:22:31.964Z,27.16
2022-09-04T18:25:18.066Z,27.60
2022-09-04T18:28:11.332Z,27.37
2022-09-04T18:37:08.882Z,27.08
2022-09-04T18:37:26.558Z,27.24
2022-09-04T18:38:10.879Z,27.18
2022-09-04T18:43:45.028Z,27.02
2022-09-04T18:50:30.998Z,26.94
2022-09-04T18:50:45.858Z,26.32
2022-09-04T18:50:50.872Z,26.63
2022-09-04T18:52:19.705Z,26.43
2022-09-04T18:54:56.750Z,26.40
2022-09-04T18:57:38.315Z,26.66
2022-09-04T19:00:13.009Z,26.96
2022-09-04T19:03:03.535Z,26.60
2022-09-04T19:05:44.911Z,26.68
2022-09-04T19:08:25.781Z,26.92
2022-09-04T19:10:59.185Z,27.16
2022-09-04T19:13:49.354Z,25.95
2022-09-04T19:17:08.624Z,26.17
2022-09-04T19:19:45.033Z,26.58
2022-09-04T19:22:25.130Z,26.60
2022-09-04T19:25:27.219Z,26.72
2022-09-04T19:28:13.804Z,26.54
2022-09-04T19:30:54.807Z,26.61
2022-09-04T19:33:57.612Z,26.42
2022-09-04T19:36:37.552Z,26.15
2022-09-04T19:45:56.271Z,26.29
2022-09-04T19:46:01.429Z,25.97
2022-09-04T19:46:15.612Z,26.15
2022-09-04T19:48:23.593Z,26.05
2022-09-04T19:53:33.144Z,25.61
2022-09-04T19:53:56.176Z,25.84
2022-09-04T19:57:32.008Z,25.85
2022-09-04T19:59:40.125Z,25.89
2022-09-04T20:02:49.393Z,26.04
2022-09-04T20:05:37.857Z,25.99
2022-09-04T20:08:14.144Z,25.87
2022-09-04T20:10:47.781Z,25.15
2022-09-04T20:13:30.334Z,25.04
2022-09-04T20:16:06.609Z,24.83
2022-09-04T20:19:02.464Z,25.40
2022-09-04T20:21:45.736Z,25.72
2022-09-04T20:24:13.241Z,25.77
2022-09-04T20:26:47.173Z,25.73
2022-09-04T20:29:23.785Z,26.01
2022-09-04T20:32:26.879Z,26.08
2022-09-04T20:35:32.592Z,25.44
2022-09-04T20:38:20.900Z,25.46
2022-09-04T20:41:24.649Z,25.32
2022-09-04T20:44:22.867Z,25.39
2022-09-04T20:52:43.708Z,25.47
2022-09-04T20:52:59.022Z,25.32
2022-09-04T20:53:23.885Z,25.47
2022-09-04T20:56:01.094Z,25.42
2022-09-04T21:03:07.291Z,24.79
2022-09-04T21:03:22.527Z,24.51
2022-09-04T21:05:34.465Z,24.55
2022-09-04T21:08:13.469Z,24.75
2022-09-04T21:10:55.608Z,24.97
2022-09-04T21:13:47.449Z,24.85
2022-09-04T21:16:37.903Z,25.25
2022-09-04T21:19:33.141Z,25.11
2022-09-04T21:22:00.999Z,25.01
2022-09-04T21:24:40.695Z,25.16
2022-09-04T21:27:27.428Z,25.30
2022-09-04T21:30:14.444Z,25.42
2022-09-04T21:33:27.164Z,25.49
2022-09-04T21:48:25.007Z,25.87
2022-09-04T21:51:04.551Z,25.76
2022-09-04T22:02:29.226Z,25.86
2022-09-04T22:02:41.324Z,26.03
2022-09-04T22:03:35.057Z,25.58
2022-09-04T22:08:58.739Z,25.22
2022-09-04T22:13:30.138Z,25.03
2022-09-04T22:13:41.041Z,25.25
2022-09-04T22:16:09.705Z,25.47
2022-09-04T22:18:46.234Z,25.38
2022-09-04T22:21:21.037Z,25.34
2022-09-04T22:24:03.801Z,25.52
2022-09-04T22:26:43.278Z,25.59
2022-09-04T22:29:26.773Z,25.53
2022-09-04T22:32:21.451Z,25.51
2022-09-04T22:34:54.899Z,25.53
2022-09-04T22:38:02.171Z,25.73
2022-09-04T22:40:57.033Z,25.74
2022-09-04T22:43:27.130Z,25.59
2022-09-04T22:46:03.339Z,25.40
2022-09-04T22:49:12.049Z,25.81
2022-09-04T22:51:58.851Z,25.50
2022-09-04T22:54:29.083Z,25.72
2022-09-04T22:57:02.926Z,25.74
2022-09-04T22:59:51.592Z,26.00
2022-09-04T23:07:56.135Z,26.33
2022-09-04T23:13:49.353Z,25.97
2022-09-04T23:13:50.233Z,25.99
2022-09-04T23:15:32.842Z,26.08
2022-09-04T23:20:18.991Z,25.98
2022-09-04T23:26:32.358Z,26.03
2022-09-04T23:26:44.645Z,25.89
2022-09-04T23:27:28.397Z,25.97
2022-09-04T23:30:25.182Z,25.98
2022-09-04T23:33:13.219Z,25.76
2022-09-04T23:35:46.503Z,25.60
2022-09-04T23:38:43.714Z,25.70
2022-09-04T23:41:33.178Z,25.84
2022-09-04T23:44:28.317Z,25.73
2022-09-04T23:47:01.747Z,25.82
2022-09-04T23:49:38.064Z,25.76
2022-09-04T23:52:27.320Z,25.73
2022-09-04T23:55:41.386Z,25.71
2022-09-04T23:59:11.810Z,25.60
